Slave Lake Airport
CYZH : now visible

Aeroporto :











RITROVATECI SU...

 
LOGIN :

Iscrizione | Disclaimer

   EN    FR    IT 

 









Sommario :    VFR   VFR Marginale   IFR   IFR Intensivo   IFR Molto Intensivo
Visibilità : 
Base nubi : 
>= 8 km
>= 3000ft
5 / 8 km
1000 / 3000 ft
1500m / 5 km
500 / 1000 ft
800 / 1500m
200 / 500 ft
< 800m
< 200 ft
Simboli :   Temporali  Nebbia  Neve Forte  Precipitazioni Forti  Vento > 20 kt






- Altitudine del aeroporto : 1912 ft
- Codice IATA : YZH


CYZH - Slave Lake

ULTIMO METAR :
  • 272100Z AUTO 10010G15KT 5SM BR CLR M07/M08 A2982 RMK SLP139

METARs OBSOLETI :
  • 272056Z AUTO 10010G15KT 5SM BR CLR M07/M09 A2982 RMK SLP138
  • 272000Z AUTO 10010G15KT 6SM BR SCT190 M07/M09 A2982 RMK SLP139
  • 271900Z AUTO 10008KT 5SM BR SCT210 SCT230 M08/M09 A2984 RMK SLP146

TAF AMD TAF CYZH
Valido dal 27 a 21 ore il 28 a 07 ore UTC


272104Z 2721/2807 10010KT P6SM SCT008
TEMPO 2721/2722 5SM BR BKN008
FM272200 10007KT P6SM FEW250
BECMG 2801/2803 VRB03KT RMK FCST BASED ON AUTO OBS. NXT FCST BY 280100Z



MetMap, La meteo Aeronautica in un colpo d'occhio ! - Copyright ORBIFLY Dicembre 2007 - Disclaimer

ORBIFLY MET'MAP TEAM :

Programmazione e sviluppo : Alexandra Zaïnal
Concezione : Baudouin d'Aumeries
Aiuto per la programmazione : Marc-Olivier Méhu
Supporto tecnico e logistico : Manuel Goepfert
Aiuto per la traduzione : Arnaldo La Scala

Contatto : metmap@orbifly.com




FONTI E CREDITI :

   NOAA       Earth
Advisory